createdAt,value
2018-07-28T00:00:42.358Z,5.45
2018-07-28T00:03:10.648Z,5.62
2018-07-28T00:05:38.931Z,5.80
2018-07-28T00:08:07.194Z,5.08
2018-07-28T00:10:35.581Z,5.08
2018-07-28T00:13:03.901Z,5.58
2018-07-28T00:15:32.715Z,4.85
2018-07-28T00:18:00.983Z,5.03
2018-07-28T00:20:29.252Z,5.25
2018-07-28T00:22:57.577Z,5.95
2018-07-28T00:25:25.783Z,6.10
2018-07-28T00:27:54.091Z,5.20
2018-07-28T00:30:22.393Z,5.33
2018-07-28T00:32:50.638Z,5.22
2018-07-28T00:35:18.870Z,5.95
2018-07-28T00:37:47.139Z,5.45
2018-07-28T00:40:15.440Z,5.70
2018-07-28T00:42:43.694Z,5.15
2018-07-28T00:45:11.895Z,5.70
2018-07-28T00:47:40.161Z,5.45
2018-07-28T00:50:09.248Z,5.20
2018-07-28T00:52:37.786Z,5.53
2018-07-28T00:55:06.435Z,5.55
2018-07-28T00:57:34.796Z,5.90
2018-07-28T01:00:03.115Z,5.12
2018-07-28T01:02:31.419Z,5.60
2018-07-28T01:04:59.720Z,5.03
2018-07-28T01:07:27.975Z,5.45
2018-07-28T01:09:56.227Z,5.67
2018-07-28T01:12:24.485Z,5.65
2018-07-28T01:14:52.518Z,5.03
2018-07-28T01:17:20.791Z,5.58
2018-07-28T01:19:49.008Z,6.08
2018-07-28T01:22:17.249Z,5.58
2018-07-28T01:24:45.490Z,5.92
2018-07-28T01:27:13.768Z,5.62
2018-07-28T01:29:42.071Z,5.97
2018-07-28T01:32:10.369Z,5.97
2018-07-28T01:34:38.980Z,5.87
2018-07-28T01:37:06.988Z,5.67
2018-07-28T01:39:35.219Z,5.30
2018-07-28T01:42:03.534Z,6.05
2018-07-28T01:44:31.778Z,6.60
2018-07-28T01:47:00.010Z,7.08
2018-07-28T01:49:28.256Z,7.05
2018-07-28T01:51:56.507Z,6.95
2018-07-28T01:54:24.806Z,6.30
2018-07-28T01:56:53.090Z,6.17
2018-07-28T01:59:21.408Z,6.40
2018-07-28T02:01:49.691Z,6.30
2018-07-28T02:04:17.927Z,6.70
2018-07-28T02:06:46.243Z,6.25
2018-07-28T02:09:14.467Z,6.40
2018-07-28T02:11:42.795Z,6.90
2018-07-28T02:14:11.047Z,6.40
2018-07-28T02:16:39.363Z,6.05
2018-07-28T02:19:07.343Z,6.47
2018-07-28T02:21:35.601Z,6.17
2018-07-28T02:24:03.897Z,5.47
2018-07-28T02:26:32.169Z,5.85
2018-07-28T02:29:00.421Z,6.00
2018-07-28T02:31:28.684Z,5.80
2018-07-28T02:33:56.987Z,5.85
2018-07-28T02:36:25.248Z,6.42
2018-07-28T02:38:53.542Z,5.87
2018-07-28T02:41:21.817Z,6.15
2018-07-28T02:43:50.131Z,5.62
2018-07-28T02:46:18.851Z,6.03
2018-07-28T02:48:47.190Z,5.22
2018-07-28T02:51:15.431Z,6.03
2018-07-28T02:53:44.764Z,6.15
2018-07-28T02:56:14.063Z,5.55
2018-07-28T02:58:42.647Z,5.92
2018-07-28T03:01:11.423Z,6.03
2018-07-28T03:03:40.204Z,5.90
2018-07-28T03:06:08.644Z,5.65
2018-07-28T03:08:37.190Z,6.37
2018-07-28T03:11:06.137Z,6.58
2018-07-28T03:13:34.398Z,6.47
2018-07-28T03:16:02.718Z,6.50
2018-07-28T03:18:30.951Z,6.25
2018-07-28T03:20:59.203Z,5.70
2018-07-28T03:23:27.544Z,5.90
2018-07-28T03:25:55.832Z,6.15
2018-07-28T03:28:24.074Z,5.97
2018-07-28T03:30:52.087Z,6.67
2018-07-28T03:33:20.335Z,6.15
2018-07-28T03:35:48.570Z,6.17
2018-07-28T03:38:16.823Z,6.08
2018-07-28T03:40:45.089Z,6.50
2018-07-28T03:43:13.351Z,6.17
2018-07-28T03:45:41.631Z,6.90
2018-07-28T03:48:09.885Z,6.92
2018-07-28T03:50:38.210Z,6.20
2018-07-28T03:53:06.449Z,6.17
2018-07-28T03:55:34.710Z,5.97
2018-07-28T03:58:03.019Z,6.37
2018-07-28T04:00:31.271Z,5.53
2018-07-28T04:02:59.559Z,6.72
2018-07-28T04:05:27.874Z,6.20
2018-07-28T04:07:56.460Z,6.60
2018-07-28T04:10:24.759Z,6.97
2018-07-28T04:12:53.076Z,6.10
2018-07-28T04:15:21.286Z,6.92
2018-07-28T04:17:53.234Z,5.87
2018-07-28T04:20:22.414Z,6.72
2018-07-28T04:22:51.654Z,7.28
2018-07-28T04:25:20.224Z,25.08
2018-07-28T04:27:48.467Z,7.30
2018-07-28T04:30:16.761Z,6.50
2018-07-28T04:32:45.044Z,6.47
2018-07-28T04:35:13.306Z,6.33
2018-07-28T04:37:41.596Z,6.53
2018-07-28T04:40:11.576Z,7.85
2018-07-28T04:42:40.353Z,6.72
2018-07-28T04:45:08.997Z,6.12
2018-07-28T04:47:37.271Z,6.35
2018-07-28T04:50:05.737Z,6.72
2018-07-28T04:52:33.999Z,7.92
2018-07-28T04:55:02.281Z,9.75
2018-07-28T04:57:30.619Z,9.85
2018-07-28T04:59:58.927Z,8.78
2018-07-28T05:02:28.440Z,8.60
2018-07-28T05:04:57.238Z,8.65
2018-07-28T05:07:26.033Z,7.62
2018-07-28T05:09:54.719Z,6.70
2018-07-28T05:12:23.275Z,8.08
2018-07-28T05:14:51.561Z,7.75
2018-07-28T05:17:20.648Z,6.75
2018-07-28T05:19:48.935Z,7.53
2018-07-28T05:22:17.277Z,6.78
2018-07-28T05:24:45.251Z,8.08
2018-07-28T05:27:13.553Z,7.70
2018-07-28T05:29:41.888Z,7.33
2018-07-28T05:32:10.133Z,8.98
2018-07-28T05:34:38.336Z,7.30
2018-07-28T05:37:06.607Z,6.90
2018-07-28T05:39:34.867Z,6.47
2018-07-28T05:42:03.099Z,8.00
2018-07-28T05:44:31.343Z,6.55
2018-07-28T05:46:59.319Z,7.45
2018-07-28T05:49:27.579Z,5.85
2018-07-28T05:51:55.927Z,6.62
2018-07-28T05:54:24.201Z,6.65
2018-07-28T05:56:52.525Z,5.95
2018-07-28T05:59:20.581Z,5.60
2018-07-28T06:01:48.916Z,5.87
2018-07-28T06:04:17.232Z,6.25
2018-07-28T06:06:45.622Z,5.35
2018-07-28T06:09:13.642Z,8.55
2018-07-28T06:11:41.928Z,6.42
2018-07-28T06:14:10.243Z,5.92
2018-07-28T06:16:38.280Z,6.10
2018-07-28T06:19:06.574Z,6.78
2018-07-28T06:21:34.858Z,6.17
2018-07-28T06:24:03.154Z,6.12
2018-07-28T06:26:31.422Z,5.80
2018-07-28T06:28:59.725Z,5.67
2018-07-28T06:31:28.048Z,6.20
2018-07-28T06:33:56.281Z,6.45
2018-07-28T06:36:24.983Z,6.22
2018-07-28T06:38:53.194Z,5.67
2018-07-28T06:41:21.507Z,5.53
2018-07-28T06:43:49.774Z,6.60
2018-07-28T06:46:18.059Z,6.28
2018-07-28T06:48:46.279Z,6.45
2018-07-28T06:51:14.536Z,6.15
2018-07-28T06:53:42.763Z,6.45
2018-07-28T06:56:11.021Z,6.08
2018-07-28T06:58:39.393Z,6.05
2018-07-28T07:01:07.649Z,5.67
2018-07-28T07:03:35.905Z,6.00
2018-07-28T07:06:05.712Z,5.95
2018-07-28T07:08:34.323Z,5.30
2018-07-28T07:11:02.640Z,5.47
2018-07-28T07:13:30.924Z,5.58
2018-07-28T07:15:58.931Z,6.40
2018-07-28T07:18:27.206Z,5.53
2018-07-28T07:20:55.522Z,14.53
2018-07-28T07:23:23.824Z,7.35
2018-07-28T07:25:51.885Z,6.05
2018-07-28T07:28:20.116Z,6.50
2018-07-28T07:30:48.403Z,6.40
2018-07-28T07:33:16.683Z,6.00
2018-07-28T07:35:45.002Z,6.47
2018-07-28T07:38:13.059Z,5.17
2018-07-28T07:40:41.351Z,6.78
2018-07-28T07:43:09.597Z,5.72
2018-07-28T07:45:38.113Z,6.42
2018-07-28T07:48:06.424Z,5.25
2018-07-28T07:50:34.798Z,5.75
2018-07-28T07:53:03.099Z,5.20
2018-07-28T07:55:31.375Z,5.33
2018-07-28T07:57:59.691Z,6.58
2018-07-28T08:00:27.916Z,7.17
2018-07-28T08:02:56.227Z,5.72
2018-07-28T08:05:24.511Z,5.53
2018-07-28T08:07:52.773Z,5.58
2018-07-28T08:10:21.890Z,5.22
2018-07-28T08:12:50.188Z,5.65
2018-07-28T08:15:18.473Z,5.30
2018-07-28T08:17:46.785Z,5.87
2018-07-28T08:20:15.068Z,5.55
2018-07-28T08:22:43.310Z,6.03
2018-07-28T08:25:11.618Z,5.40
2018-07-28T08:27:39.904Z,5.80
2018-07-28T08:30:08.161Z,5.30
2018-07-28T08:32:36.519Z,5.55
2018-07-28T08:35:05.551Z,5.50
2018-07-28T08:37:33.826Z,5.03
2018-07-28T08:40:02.282Z,5.25
2018-07-28T08:42:30.560Z,5.72
2018-07-28T08:44:58.886Z,5.55
2018-07-28T08:47:26.898Z,5.87
2018-07-28T08:49:56.099Z,5.45
2018-07-28T08:52:24.359Z,5.78
2018-07-28T08:54:52.840Z,5.15
2018-07-28T08:57:21.065Z,6.15
2018-07-28T08:59:49.311Z,5.33
2018-07-28T09:02:17.546Z,5.50
2018-07-28T09:04:45.857Z,5.37
2018-07-28T09:07:14.129Z,5.00
2018-07-28T09:09:42.433Z,5.37
2018-07-28T09:12:10.726Z,5.33
2018-07-28T09:14:39.362Z,5.53
2018-07-28T09:17:07.624Z,5.37
2018-07-28T09:19:35.853Z,5.70
2018-07-28T09:22:04.151Z,4.90
2018-07-28T09:24:32.121Z,5.72
2018-07-28T09:27:00.360Z,5.75
2018-07-28T09:29:28.957Z,5.30
2018-07-28T09:31:57.267Z,4.92
2018-07-28T09:34:25.483Z,4.78
2018-07-28T09:36:53.777Z,5.12
2018-07-28T09:39:21.987Z,4.53
2018-07-28T09:41:50.213Z,5.15
2018-07-28T09:44:18.538Z,5.33
2018-07-28T09:46:46.861Z,5.62
2018-07-28T09:49:15.134Z,5.22
2018-07-28T09:51:43.445Z,5.30
2018-07-28T09:54:11.794Z,5.78
2018-07-28T09:56:40.015Z,5.58
2018-07-28T09:59:08.341Z,4.90
2018-07-28T10:01:36.616Z,5.40
2018-07-28T10:04:04.897Z,5.37
2018-07-28T10:06:33.174Z,5.20
2018-07-28T10:09:01.435Z,5.47
2018-07-28T10:11:29.693Z,4.87
2018-07-28T10:13:57.988Z,4.90
2018-07-28T10:16:26.301Z,5.28
2018-07-28T10:18:54.544Z,4.70
2018-07-28T10:21:22.771Z,5.47
2018-07-28T10:23:51.088Z,5.37
2018-07-28T10:26:19.362Z,4.87
2018-07-28T10:28:47.649Z,4.65
2018-07-28T10:31:15.972Z,5.78
2018-07-28T10:33:44.271Z,5.05
2018-07-28T10:36:12.600Z,5.08
2018-07-28T10:38:40.761Z,4.60
2018-07-28T10:41:09.059Z,5.55
2018-07-28T10:43:37.288Z,5.33
2018-07-28T10:46:06.004Z,5.00
2018-07-28T10:48:34.333Z,4.47
2018-07-28T10:51:02.290Z,4.70
2018-07-28T10:53:30.519Z,5.20
2018-07-28T10:55:58.775Z,4.40
2018-07-28T10:58:27.035Z,4.60
2018-07-28T11:03:36.330Z,4.67
2018-07-28T11:06:04.782Z,4.83
2018-07-28T11:08:33.078Z,4.28
2018-07-28T11:11:01.363Z,3.83
2018-07-28T11:13:29.640Z,4.50
2018-07-28T11:15:57.904Z,3.87
2018-07-28T11:18:26.248Z,4.12
2018-07-28T11:20:54.892Z,4.15
2018-07-28T11:23:34.584Z,4.30
2018-07-28T11:26:02.896Z,4.70
2018-07-28T11:28:31.093Z,6.85
2018-07-28T11:30:59.397Z,6.22
2018-07-28T11:33:38.935Z,4.72
2018-07-28T11:36:18.736Z,4.75
2018-07-28T11:38:58.518Z,4.58
2018-07-28T11:41:38.364Z,4.80
2018-07-28T11:44:17.855Z,5.28
2018-07-28T11:46:46.120Z,4.62
2018-07-28T11:49:14.305Z,4.50
2018-07-28T11:51:42.568Z,8.15
2018-07-28T11:54:10.843Z,5.58
2018-07-28T11:56:39.084Z,5.17
2018-07-28T11:59:07.349Z,4.70
2018-07-28T12:01:35.649Z,4.37
2018-07-28T12:04:03.878Z,4.40
2018-07-28T12:06:32.216Z,4.87
2018-07-28T12:09:00.471Z,4.03
2018-07-28T12:11:28.712Z,4.25
2018-07-28T12:13:56.999Z,4.30
2018-07-28T12:16:25.247Z,4.40
2018-07-28T12:18:53.496Z,4.47
2018-07-28T12:21:21.765Z,5.78
2018-07-28T12:23:50.083Z,6.15
2018-07-28T12:26:18.310Z,4.55
2018-07-28T12:28:46.593Z,3.90
2018-07-28T12:31:14.856Z,4.15
2018-07-28T12:33:46.167Z,3.80
2018-07-28T12:36:14.454Z,4.17
2018-07-28T12:38:42.725Z,4.60
2018-07-28T12:41:11.044Z,4.20
2018-07-28T12:43:39.224Z,4.17
2018-07-28T12:46:07.488Z,4.42
2018-07-28T12:48:35.791Z,5.80
2018-07-28T12:51:04.096Z,8.03
2018-07-28T12:53:32.384Z,5.28
2018-07-28T12:56:00.679Z,4.65
2018-07-28T12:58:28.994Z,4.85
2018-07-28T13:00:57.356Z,5.30
2018-07-28T13:03:25.618Z,5.08
2018-07-28T13:05:53.610Z,4.67
2018-07-28T13:08:21.913Z,4.50
2018-07-28T13:10:50.261Z,5.47
2018-07-28T13:13:18.502Z,5.00
2018-07-28T13:15:46.752Z,5.12
2018-07-28T13:18:15.013Z,5.58
2018-07-28T13:20:43.337Z,4.70
2018-07-28T13:23:11.611Z,4.95
2018-07-28T13:25:39.805Z,4.92
2018-07-28T13:28:08.063Z,4.60
2018-07-28T13:30:36.371Z,3.95
2018-07-28T13:33:04.719Z,4.25
2018-07-28T13:35:32.740Z,4.42
2018-07-28T13:38:01.048Z,4.62
2018-07-28T13:40:29.339Z,4.20
2018-07-28T13:42:57.686Z,5.22
2018-07-28T13:45:25.985Z,6.20
2018-07-28T13:47:54.233Z,5.15
2018-07-28T13:50:22.601Z,5.37
2018-07-28T13:52:50.848Z,5.33
2018-07-28T13:55:19.103Z,4.70
2018-07-28T13:57:47.359Z,5.65
2018-07-28T14:00:15.804Z,5.70
2018-07-28T14:02:44.078Z,5.70
2018-07-28T14:05:12.316Z,5.78
2018-07-28T14:07:40.603Z,5.33
2018-07-28T14:10:09.523Z,5.60
2018-07-28T14:12:44.282Z,4.80
2018-07-28T14:15:12.609Z,5.05
2018-07-28T14:17:40.882Z,4.95
2018-07-28T14:20:09.155Z,4.20
2018-07-28T14:22:37.775Z,4.58
2018-07-28T14:25:06.973Z,4.30
2018-07-28T14:27:35.316Z,3.70
2018-07-28T14:30:03.599Z,3.95
2018-07-28T14:32:31.844Z,4.08
2018-07-28T14:35:00.210Z,5.12
2018-07-28T14:37:28.502Z,5.08
2018-07-28T14:39:56.467Z,5.87
2018-07-28T14:42:24.704Z,7.40
2018-07-28T14:44:53.024Z,8.85
2018-07-28T14:47:21.341Z,3.20
2018-07-28T14:49:49.644Z,2.90
2018-07-28T14:52:17.932Z,3.10
2018-07-28T14:54:46.438Z,3.70
2018-07-28T14:57:14.437Z,5.55
2018-07-28T14:59:42.682Z,5.12
2018-07-28T15:02:11.415Z,4.80
2018-07-28T15:04:39.646Z,5.10
2018-07-28T15:07:08.127Z,5.10
2018-07-28T15:09:36.332Z,5.90
2018-07-28T15:12:05.646Z,5.50
2018-07-28T15:14:33.952Z,5.47
2018-07-28T15:17:02.210Z,5.20
2018-07-28T15:19:30.526Z,5.95
2018-07-28T15:21:58.790Z,6.30
2018-07-28T15:24:27.142Z,5.87
2018-07-28T15:26:55.368Z,6.55
2018-07-28T15:29:23.672Z,5.40
2018-07-28T15:31:51.958Z,5.70
2018-07-28T15:34:20.239Z,6.08
2018-07-28T15:36:49.362Z,6.80
2018-07-28T15:39:17.592Z,6.72
2018-07-28T15:41:45.869Z,7.87
2018-07-28T15:44:15.096Z,7.35
2018-07-28T15:46:43.343Z,7.37
2018-07-28T15:49:11.693Z,6.47
2018-07-28T15:51:39.694Z,6.47
2018-07-28T15:54:07.955Z,7.03
2018-07-28T15:56:36.546Z,6.42
2018-07-28T15:59:04.834Z,6.12
2018-07-28T16:01:33.091Z,6.15
2018-07-28T16:04:01.375Z,6.72
2018-07-28T16:06:29.661Z,6.15
2018-07-28T16:08:57.904Z,5.30
2018-07-28T16:11:26.258Z,5.40
2018-07-28T16:13:54.559Z,5.40
2018-07-28T16:16:22.875Z,5.12
2018-07-28T16:18:51.455Z,4.83
2018-07-28T16:21:19.765Z,4.17
2018-07-28T16:23:48.050Z,3.87
2018-07-28T16:26:16.380Z,5.05
2018-07-28T16:28:44.651Z,4.30
2018-07-28T16:31:12.937Z,4.22
2018-07-28T16:33:41.203Z,4.22
2018-07-28T16:36:09.461Z,4.17
2018-07-28T16:38:37.743Z,6.17
2018-07-28T16:41:06.053Z,5.55
2018-07-28T16:43:34.326Z,3.98
2018-07-28T16:46:02.647Z,4.00
2018-07-28T16:48:30.642Z,3.98
2018-07-28T16:50:58.962Z,3.80
2018-07-28T16:53:27.251Z,3.70
2018-07-28T16:55:55.541Z,4.00
2018-07-28T16:58:23.828Z,3.90
2018-07-28T17:00:51.834Z,3.45
2018-07-28T17:03:20.079Z,3.50
2018-07-28T17:05:49.099Z,3.15
2018-07-28T17:08:17.342Z,2.90
2018-07-28T17:10:45.358Z,3.98
2018-07-28T17:13:13.639Z,2.55
2018-07-28T17:15:41.939Z,2.33
2018-07-28T17:18:10.241Z,3.00
2018-07-28T17:20:38.529Z,2.72
2018-07-28T17:23:06.758Z,3.00
2018-07-28T17:25:34.989Z,3.02
2018-07-28T17:28:03.252Z,3.10
2018-07-28T17:30:31.524Z,3.37
2018-07-28T17:32:59.534Z,3.60
2018-07-28T17:35:27.792Z,4.65
2018-07-28T17:37:56.009Z,3.10
2018-07-28T17:40:24.258Z,2.65
2018-07-28T17:42:52.524Z,3.05
2018-07-28T17:45:20.803Z,2.92
2018-07-28T17:47:49.054Z,3.00
2018-07-28T17:50:17.342Z,2.95
2018-07-28T17:52:52.236Z,2.92
2018-07-28T17:55:20.491Z,3.22
2018-07-28T17:57:48.793Z,2.72
2018-07-28T18:00:17.029Z,2.75
2018-07-28T18:02:45.340Z,2.70
2018-07-28T18:05:13.613Z,2.75
2018-07-28T18:07:41.983Z,2.83
2018-07-28T18:10:10.223Z,2.80
2018-07-28T18:12:38.473Z,3.17
2018-07-28T18:15:06.830Z,6.60
2018-07-28T18:17:35.163Z,3.90
2018-07-28T18:20:03.630Z,3.87
2018-07-28T18:22:31.860Z,2.90
2018-07-28T18:25:00.148Z,2.92
2018-07-28T18:27:28.170Z,3.02
2018-07-28T18:29:56.402Z,3.15
2018-07-28T18:32:24.715Z,2.95
2018-07-28T18:34:53.605Z,2.98
2018-07-28T18:37:21.878Z,3.25
2018-07-28T18:39:50.106Z,3.10
2018-07-28T18:42:18.366Z,3.20
2018-07-28T18:44:46.582Z,2.80
2018-07-28T18:47:14.892Z,2.87
2018-07-28T18:49:43.176Z,3.52
2018-07-28T18:52:11.847Z,3.10
2018-07-28T18:54:40.158Z,2.90
2018-07-28T18:57:08.498Z,3.35
2018-07-28T18:59:36.775Z,3.45
2018-07-28T19:02:05.071Z,3.35
2018-07-28T19:04:33.326Z,2.75
2018-07-28T19:07:02.666Z,4.33
2018-07-28T19:09:36.417Z,3.72
2018-07-28T19:12:04.711Z,3.83
2018-07-28T19:14:34.823Z,6.05
2018-07-28T19:17:03.102Z,3.20
2018-07-28T19:19:31.392Z,2.98
2018-07-28T19:21:59.633Z,2.55
2018-07-28T19:24:27.859Z,3.10
2018-07-28T19:26:56.116Z,2.45
2018-07-28T19:29:29.799Z,3.15
2018-07-28T19:31:58.094Z,2.30
2018-07-28T19:34:26.312Z,2.83
2018-07-28T19:36:59.964Z,2.62
2018-07-28T19:39:28.239Z,4.35
2018-07-28T19:42:02.075Z,5.08
2018-07-28T19:44:30.360Z,2.80
2018-07-28T19:46:59.183Z,2.90
2018-07-28T19:49:27.483Z,2.55
2018-07-28T19:51:56.607Z,3.22
2018-07-28T19:54:24.888Z,2.80
2018-07-28T19:56:53.139Z,2.65
2018-07-28T19:59:21.436Z,2.87
2018-07-28T20:01:49.700Z,5.53
2018-07-28T20:04:17.963Z,4.42
2018-07-28T20:06:46.323Z,2.75
2018-07-28T20:09:14.571Z,3.17
2018-07-28T20:11:42.876Z,3.17
2018-07-28T20:14:11.165Z,3.20
2018-07-28T20:16:39.541Z,3.27
2018-07-28T20:19:08.036Z,3.87
2018-07-28T20:21:36.296Z,8.15
2018-07-28T20:24:04.556Z,6.75
2018-07-28T20:26:32.921Z,4.72
2018-07-28T20:29:01.167Z,3.27
2018-07-28T20:31:29.504Z,3.40
2018-07-28T20:33:57.815Z,5.40
2018-07-28T20:36:26.098Z,3.92
2018-07-28T20:38:54.372Z,3.62
2018-07-28T20:41:22.735Z,4.03
2018-07-28T20:43:50.907Z,4.12
2018-07-28T20:46:19.210Z,3.58
2018-07-28T20:48:47.490Z,3.27
2018-07-28T20:51:15.755Z,3.77
2018-07-28T20:53:44.018Z,3.27
2018-07-28T20:56:12.291Z,3.55
2018-07-28T20:58:40.599Z,3.60
2018-07-28T21:01:08.934Z,3.72
2018-07-28T21:03:37.275Z,3.87
2018-07-28T21:06:05.659Z,3.67
2018-07-28T21:08:33.939Z,3.52
2018-07-28T21:11:02.231Z,3.85
2018-07-28T21:13:30.493Z,4.10
2018-07-28T21:15:58.762Z,4.10
2018-07-28T21:18:27.019Z,4.42
2018-07-28T21:20:55.270Z,4.30
2018-07-28T21:23:23.544Z,3.98
2018-07-28T21:25:51.808Z,17.32
2018-07-28T21:28:20.899Z,8.25
2018-07-28T21:30:49.172Z,5.10
2018-07-28T21:33:17.623Z,4.15
2018-07-28T21:35:45.858Z,4.03
2018-07-28T21:38:14.103Z,4.75
2018-07-28T21:40:42.378Z,3.60
2018-07-28T21:43:10.665Z,3.50
2018-07-28T21:45:38.911Z,3.20
2018-07-28T21:48:13.682Z,3.60
2018-07-28T21:50:41.961Z,3.60
2018-07-28T21:53:10.223Z,3.70
2018-07-28T21:55:38.485Z,3.30
2018-07-28T21:58:06.729Z,3.83
2018-07-28T22:00:40.493Z,3.65
2018-07-28T22:03:08.805Z,4.42
2018-07-28T22:05:37.132Z,3.83
2018-07-28T22:08:05.671Z,3.00
2018-07-28T22:10:33.986Z,3.10
2018-07-28T22:13:02.271Z,3.40
2018-07-28T22:15:30.507Z,3.52
2018-07-28T22:17:58.752Z,3.72
2018-07-28T22:20:26.729Z,3.20
2018-07-28T22:22:54.983Z,2.92
2018-07-28T22:25:23.263Z,3.70
2018-07-28T22:27:51.582Z,3.40
2018-07-28T22:30:19.880Z,3.67
2018-07-28T22:32:48.154Z,3.17
2018-07-28T22:35:16.372Z,2.98
2018-07-28T22:37:44.691Z,3.50
2018-07-28T22:40:12.923Z,3.10
2018-07-28T22:42:48.009Z,3.87
2018-07-28T22:45:16.822Z,3.58
2018-07-28T22:47:45.577Z,3.60
2018-07-28T22:50:13.886Z,3.47
2018-07-28T22:52:42.470Z,3.50
2018-07-28T22:55:10.751Z,3.55
2018-07-28T22:57:39.063Z,3.83
2018-07-28T23:00:07.502Z,3.55
2018-07-28T23:02:35.921Z,3.52
2018-07-28T23:05:04.740Z,3.55
2018-07-28T23:07:33.044Z,3.83
2018-07-28T23:10:01.381Z,3.27
2018-07-28T23:12:29.665Z,3.70
2018-07-28T23:14:57.882Z,4.10
2018-07-28T23:17:26.175Z,3.65
2018-07-28T23:19:54.479Z,3.17
2018-07-28T23:22:22.770Z,3.70
2018-07-28T23:24:50.998Z,3.52
2018-07-28T23:27:19.247Z,3.40
2018-07-28T23:29:47.486Z,3.35
2018-07-28T23:32:15.774Z,3.42
2018-07-28T23:34:44.012Z,3.45
2018-07-28T23:37:12.250Z,3.87
2018-07-28T23:39:40.553Z,3.45
2018-07-28T23:42:08.820Z,3.15
2018-07-28T23:44:37.099Z,3.40
2018-07-28T23:47:05.467Z,3.47
2018-07-28T23:49:33.727Z,3.72
2018-07-28T23:52:02.010Z,3.65
2018-07-28T23:54:30.300Z,3.70
2018-07-28T23:56:58.531Z,4.40
2018-07-28T23:59:27.760Z,3.55
